sensor_id;sensor_type;location;lat;lon;timestamp;pressure;altitude;pressure_sealevel;temperature;humidity
35649;BME280;21768;48.562;13.414;2024-01-15T00:01:06;95984.25;;;-1.11;66.65
35649;BME280;21768;48.562;13.414;2024-01-15T00:03:32;95986.84;;;-1.09;66.80
35649;BME280;21768;48.562;13.414;2024-01-15T00:05:57;95988.50;;;-0.99;66.49
35649;BME280;21768;48.562;13.414;2024-01-15T00:08:22;95986.03;;;-0.89;66.47
35649;BME280;21768;48.562;13.414;2024-01-15T00:10:48;95985.72;;;-0.84;66.33
35649;BME280;21768;48.562;13.414;2024-01-15T00:13:13;95991.19;;;-0.78;66.25
35649;BME280;21768;48.562;13.414;2024-01-15T00:15:39;95995.63;;;-0.74;66.27
35649;BME280;21768;48.562;13.414;2024-01-15T00:18:04;96000.97;;;-0.69;66.05
35649;BME280;21768;48.562;13.414;2024-01-15T00:20:30;96007.91;;;-0.65;66.08
35649;BME280;21768;48.562;13.414;2024-01-15T00:22:55;96001.59;;;-0.61;66.17
35649;BME280;21768;48.562;13.414;2024-01-15T00:25:21;95993.31;;;-0.62;66.03
35649;BME280;21768;48.562;13.414;2024-01-15T00:27:46;95990.34;;;-0.58;66.24
35649;BME280;21768;48.562;13.414;2024-01-15T00:30:12;95980.09;;;-0.52;66.19
35649;BME280;21768;48.562;13.414;2024-01-15T00:32:37;95973.91;;;-0.47;66.01
35649;BME280;21768;48.562;13.414;2024-01-15T00:35:03;95979.09;;;-0.44;66.00
35649;BME280;21768;48.562;13.414;2024-01-15T00:37:28;95966.34;;;-0.49;66.06
35649;BME280;21768;48.562;13.414;2024-01-15T00:39:54;95965.59;;;-0.58;66.32
35649;BME280;21768;48.562;13.414;2024-01-15T00:42:19;95966.56;;;-0.66;66.34
35649;BME280;21768;48.562;13.414;2024-01-15T00:44:44;95959.13;;;-0.76;66.52
35649;BME280;21768;48.562;13.414;2024-01-15T00:47:10;95950.19;;;-0.84;66.50
35649;BME280;21768;48.562;13.414;2024-01-15T00:49:35;95967.72;;;-0.91;66.60
35649;BME280;21768;48.562;13.414;2024-01-15T00:52:00;95968.34;;;-0.94;66.64
35649;BME280;21768;48.562;13.414;2024-01-15T00:54:26;95981.09;;;-0.99;66.71
35649;BME280;21768;48.562;13.414;2024-01-15T00:56:52;95983.75;;;-1.07;66.55
35649;BME280;21768;48.562;13.414;2024-01-15T00:59:17;95971.13;;;-1.10;66.69
35649;BME280;21768;48.562;13.414;2024-01-15T01:01:43;95967.41;;;-1.15;66.61
35649;BME280;21768;48.562;13.414;2024-01-15T01:04:09;95961.56;;;-1.25;66.72
35649;BME280;21768;48.562;13.414;2024-01-15T01:06:35;95957.41;;;-1.35;66.85
35649;BME280;21768;48.562;13.414;2024-01-15T01:09:00;95954.41;;;-1.41;66.97
35649;BME280;21768;48.562;13.414;2024-01-15T01:11:25;95965.03;;;-1.42;66.92
35649;BME280;21768;48.562;13.414;2024-01-15T01:13:51;95970.22;;;-1.49;67.07
35649;BME280;21768;48.562;13.414;2024-01-15T01:16:16;95970.94;;;-1.50;67.17
35649;BME280;21768;48.562;13.414;2024-01-15T01:18:42;95966.25;;;-1.47;67.14
35649;BME280;21768;48.562;13.414;2024-01-15T01:21:07;95954.38;;;-1.51;67.07
35649;BME280;21768;48.562;13.414;2024-01-15T01:23:33;95955.84;;;-1.53;67.26
35649;BME280;21768;48.562;13.414;2024-01-15T01:25:58;95954.09;;;-1.54;67.21
35649;BME280;21768;48.562;13.414;2024-01-15T01:28:23;95949.63;;;-1.58;67.34
35649;BME280;21768;48.562;13.414;2024-01-15T01:30:49;95951.28;;;-1.67;67.59
35649;BME280;21768;48.562;13.414;2024-01-15T01:33:14;95961.03;;;-1.69;67.78
35649;BME280;21768;48.562;13.414;2024-01-15T01:35:39;95960.91;;;-1.71;67.44
35649;BME280;21768;48.562;13.414;2024-01-15T01:38:05;95961.03;;;-1.69;67.52
35649;BME280;21768;48.562;13.414;2024-01-15T01:40:30;95972.53;;;-1.69;67.60
35649;BME280;21768;48.562;13.414;2024-01-15T01:42:55;95964.63;;;-1.76;67.47
35649;BME280;21768;48.562;13.414;2024-01-15T01:45:21;95967.53;;;-1.80;67.59
35649;BME280;21768;48.562;13.414;2024-01-15T01:47:46;95962.47;;;-1.81;67.55
35649;BME280;21768;48.562;13.414;2024-01-15T01:50:12;95974.00;;;-1.72;67.47
35649;BME280;21768;48.562;13.414;2024-01-15T01:52:39;95975.09;;;-1.59;67.15
35649;BME280;21768;48.562;13.414;2024-01-15T01:55:06;95974.34;;;-1.58;66.94
35649;BME280;21768;48.562;13.414;2024-01-15T01:57:33;95983.78;;;-1.54;67.05
35649;BME280;21768;48.562;13.414;2024-01-15T02:00:00;95984.53;;;-1.45;67.02
35649;BME280;21768;48.562;13.414;2024-01-15T02:02:26;95989.69;;;-1.33;67.01
35649;BME280;21768;48.562;13.414;2024-01-15T02:04:52;95973.66;;;-1.28;67.21
35649;BME280;21768;48.562;13.414;2024-01-15T02:07:17;95983.06;;;-1.24;67.15
35649;BME280;21768;48.562;13.414;2024-01-15T02:09:44;95993.59;;;-1.17;66.84
35649;BME280;21768;48.562;13.414;2024-01-15T02:12:10;95995.88;;;-1.10;66.59
35649;BME280;21768;48.562;13.414;2024-01-15T02:14:35;95986.38;;;-1.05;67.23
35649;BME280;21768;48.562;13.414;2024-01-15T02:17:01;95987.97;;;-1.06;66.88
35649;BME280;21768;48.562;13.414;2024-01-15T02:19:26;96005.69;;;-1.01;66.95
35649;BME280;21768;48.562;13.414;2024-01-15T02:21:52;96015.47;;;-0.92;66.69
35649;BME280;21768;48.562;13.414;2024-01-15T02:24:17;96011.66;;;-0.89;67.11
35649;BME280;21768;48.562;13.414;2024-01-15T02:26:42;96015.13;;;-0.87;66.81
35649;BME280;21768;48.562;13.414;2024-01-15T02:29:08;96013.78;;;-0.83;66.70
35649;BME280;21768;48.562;13.414;2024-01-15T02:31:35;96010.72;;;-0.81;66.38
35649;BME280;21768;48.562;13.414;2024-01-15T02:34:01;96010.47;;;-0.74;66.56
35649;BME280;21768;48.562;13.414;2024-01-15T02:36:26;96014.81;;;-0.71;66.59
35649;BME280;21768;48.562;13.414;2024-01-15T02:38:52;96013.59;;;-0.66;66.51
35649;BME280;21768;48.562;13.414;2024-01-15T02:41:17;96012.59;;;-0.68;66.60
35649;BME280;21768;48.562;13.414;2024-01-15T02:43:42;96016.59;;;-0.60;66.62
35649;BME280;21768;48.562;13.414;2024-01-15T02:46:08;96025.53;;;-0.52;66.40
35649;BME280;21768;48.562;13.414;2024-01-15T02:48:33;96032.72;;;-0.45;66.42
35649;BME280;21768;48.562;13.414;2024-01-15T02:51:00;96024.34;;;-0.37;66.38
35649;BME280;21768;48.562;13.414;2024-01-15T02:53:26;96032.16;;;-0.32;66.26
35649;BME280;21768;48.562;13.414;2024-01-15T02:55:51;96028.19;;;-0.30;66.23
35649;BME280;21768;48.562;13.414;2024-01-15T02:58:16;96035.88;;;-0.27;66.17
35649;BME280;21768;48.562;13.414;2024-01-15T03:00:42;96031.94;;;-0.25;66.15
35649;BME280;21768;48.562;13.414;2024-01-15T03:03:07;96031.28;;;-0.22;66.04
35649;BME280;21768;48.562;13.414;2024-01-15T03:05:33;96030.31;;;-0.14;66.08
35649;BME280;21768;48.562;13.414;2024-01-15T03:07:58;96031.19;;;-0.14;66.05
35649;BME280;21768;48.562;13.414;2024-01-15T03:10:24;96040.22;;;-0.14;66.00
35649;BME280;21768;48.562;13.414;2024-01-15T03:12:49;96038.13;;;-0.10;65.96
35649;BME280;21768;48.562;13.414;2024-01-15T03:15:14;96035.16;;;-0.06;65.90
35649;BME280;21768;48.562;13.414;2024-01-15T03:17:41;96036.03;;;-0.05;65.75
35649;BME280;21768;48.562;13.414;2024-01-15T03:20:08;96036.28;;;-0.02;65.63
35649;BME280;21768;48.562;13.414;2024-01-15T03:22:33;96034.91;;;0.02;65.54
35649;BME280;21768;48.562;13.414;2024-01-15T03:24:59;96033.28;;;0.02;65.42
35649;BME280;21768;48.562;13.414;2024-01-15T03:27:24;96035.16;;;0.05;65.27
35649;BME280;21768;48.562;13.414;2024-01-15T03:29:51;96036.03;;;0.05;65.27
35649;BME280;21768;48.562;13.414;2024-01-15T03:32:16;96040.00;;;0.03;65.11
35649;BME280;21768;48.562;13.414;2024-01-15T03:34:42;96035.03;;;0.03;65.16
35649;BME280;21768;48.562;13.414;2024-01-15T03:37:07;96029.59;;;-0.03;65.06
35649;BME280;21768;48.562;13.414;2024-01-15T03:39:32;96045.34;;;-0.03;65.34
35649;BME280;21768;48.562;13.414;2024-01-15T03:41:57;96048.41;;;0.05;65.14
35649;BME280;21768;48.562;13.414;2024-01-15T03:44:23;96048.94;;;0.11;65.22
35649;BME280;21768;48.562;13.414;2024-01-15T03:46:48;96043.34;;;0.14;65.01
35649;BME280;21768;48.562;13.414;2024-01-15T03:49:14;96041.63;;;0.13;64.91
35649;BME280;21768;48.562;13.414;2024-01-15T03:51:39;96047.94;;;0.09;64.84
35649;BME280;21768;48.562;13.414;2024-01-15T03:54:04;96043.09;;;0.11;64.94
35649;BME280;21768;48.562;13.414;2024-01-15T03:56:30;96042.25;;;0.10;64.97
35649;BME280;21768;48.562;13.414;2024-01-15T03:58:55;96034.41;;;0.06;64.98
35649;BME280;21768;48.562;13.414;2024-01-15T04:01:20;96032.94;;;0.08;65.01
35649;BME280;21768;48.562;13.414;2024-01-15T04:03:46;96023.16;;;0.09;64.97
35649;BME280;21768;48.562;13.414;2024-01-15T04:06:11;96015.44;;;0.06;65.19
35649;BME280;21768;48.562;13.414;2024-01-15T04:08:36;96031.06;;;0.05;65.21
35649;BME280;21768;48.562;13.414;2024-01-15T04:11:02;96025.38;;;0.06;65.26
35649;BME280;21768;48.562;13.414;2024-01-15T04:13:27;96025.88;;;0.12;65.38
35649;BME280;21768;48.562;13.414;2024-01-15T04:15:53;96028.72;;;0.17;65.13
35649;BME280;21768;48.562;13.414;2024-01-15T04:18:18;96028.88;;;0.18;65.26
35649;BME280;21768;48.562;13.414;2024-01-15T04:20:43;96029.34;;;0.14;65.03
35649;BME280;21768;48.562;13.414;2024-01-15T04:23:09;96030.06;;;0.03;65.20
35649;BME280;21768;48.562;13.414;2024-01-15T04:25:34;96018.06;;;-0.03;65.37
35649;BME280;21768;48.562;13.414;2024-01-15T04:28:00;96030.81;;;0.02;65.73
35649;BME280;21768;48.562;13.414;2024-01-15T04:30:25;96038.63;;;0.07;65.51
35649;BME280;21768;48.562;13.414;2024-01-15T04:32:51;96040.25;;;0.06;65.37
35649;BME280;21768;48.562;13.414;2024-01-15T04:38:38;96047.44;;;0.13;65.16
35649;BME280;21768;48.562;13.414;2024-01-15T04:41:04;96042.75;;;0.16;65.20
35649;BME280;21768;48.562;13.414;2024-01-15T04:43:29;96045.34;;;0.18;65.01
35649;BME280;21768;48.562;13.414;2024-01-15T04:45:55;96044.72;;;0.20;65.17
35649;BME280;21768;48.562;13.414;2024-01-15T04:48:20;96051.56;;;0.23;65.03
35649;BME280;21768;48.562;13.414;2024-01-15T04:50:47;96042.59;;;0.25;64.92
35649;BME280;21768;48.562;13.414;2024-01-15T04:53:13;96050.91;;;0.25;64.78
35649;BME280;21768;48.562;13.414;2024-01-15T04:55:39;96061.22;;;0.30;64.94
35649;BME280;21768;48.562;13.414;2024-01-15T04:58:04;96052.66;;;0.37;64.79
35649;BME280;21768;48.562;13.414;2024-01-15T05:00:29;96055.88;;;0.36;64.54
35649;BME280;21768;48.562;13.414;2024-01-15T05:02:55;96052.41;;;0.33;64.57
35649;BME280;21768;48.562;13.414;2024-01-15T05:05:21;96051.53;;;0.33;64.52
35649;BME280;21768;48.562;13.414;2024-01-15T05:07:46;96051.66;;;0.34;64.59
35649;BME280;21768;48.562;13.414;2024-01-15T05:10:12;96041.00;;;0.36;64.48
35649;BME280;21768;48.562;13.414;2024-01-15T05:12:37;96030.44;;;0.28;64.28
35649;BME280;21768;48.562;13.414;2024-01-15T05:15:03;96032.81;;;0.26;64.33
35649;BME280;21768;48.562;13.414;2024-01-15T05:17:28;96035.53;;;0.29;64.23
35649;BME280;21768;48.562;13.414;2024-01-15T05:19:54;96027.09;;;0.27;64.37
35649;BME280;21768;48.562;13.414;2024-01-15T05:22:19;96030.72;;;0.31;64.48
35649;BME280;21768;48.562;13.414;2024-01-15T05:24:46;96036.78;;;0.34;64.44
35649;BME280;21768;48.562;13.414;2024-01-15T05:27:11;96033.44;;;0.34;64.29
35649;BME280;21768;48.562;13.414;2024-01-15T05:29:37;96045.09;;;0.35;64.21
35649;BME280;21768;48.562;13.414;2024-01-15T05:32:02;96030.72;;;0.31;64.26
35649;BME280;21768;48.562;13.414;2024-01-15T05:34:27;96035.78;;;0.32;64.26
35649;BME280;21768;48.562;13.414;2024-01-15T05:36:53;96030.31;;;0.26;64.33
35649;BME280;21768;48.562;13.414;2024-01-15T05:39:18;96034.53;;;0.27;64.36
35649;BME280;21768;48.562;13.414;2024-01-15T05:41:44;96023.63;;;0.25;64.20
35649;BME280;21768;48.562;13.414;2024-01-15T05:44:09;96027.63;;;0.23;64.07
35649;BME280;21768;48.562;13.414;2024-01-15T05:46:35;96019.78;;;0.29;63.90
35649;BME280;21768;48.562;13.414;2024-01-15T05:49:01;96018.91;;;0.28;64.07
35649;BME280;21768;48.562;13.414;2024-01-15T05:51:26;96014.84;;;0.29;63.94
35649;BME280;21768;48.562;13.414;2024-01-15T05:53:51;96015.94;;;0.32;63.86
35649;BME280;21768;48.562;13.414;2024-01-15T05:56:17;96020.91;;;0.32;63.88
35649;BME280;21768;48.562;13.414;2024-01-15T05:58:42;96017.19;;;0.27;63.79
35649;BME280;21768;48.562;13.414;2024-01-15T06:01:08;96016.31;;;0.27;63.92
35649;BME280;21768;48.562;13.414;2024-01-15T06:03:33;96015.56;;;0.28;63.82
35649;BME280;21768;48.562;13.414;2024-01-15T06:05:58;96003.44;;;0.31;63.64
35649;BME280;21768;48.562;13.414;2024-01-15T06:08:24;96012.47;;;0.30;63.66
35649;BME280;21768;48.562;13.414;2024-01-15T06:10:51;96003.06;;;0.37;63.59
35649;BME280;21768;48.562;13.414;2024-01-15T06:13:17;96003.94;;;0.37;63.58
35649;BME280;21768;48.562;13.414;2024-01-15T06:15:42;95990.53;;;0.35;63.69
35649;BME280;21768;48.562;13.414;2024-01-15T06:18:07;95989.66;;;0.34;63.55
35649;BME280;21768;48.562;13.414;2024-01-15T06:20:33;95988.44;;;0.40;63.54
35649;BME280;21768;48.562;13.414;2024-01-15T06:22:58;95984.59;;;0.43;63.37
35649;BME280;21768;48.562;13.414;2024-01-15T06:25:23;95989.66;;;0.34;63.53
35649;BME280;21768;48.562;13.414;2024-01-15T06:27:49;95996.13;;;0.32;63.60
35649;BME280;21768;48.562;13.414;2024-01-15T06:30:14;95997.09;;;0.34;63.73
35649;BME280;21768;48.562;13.414;2024-01-15T06:32:40;95998.34;;;0.40;63.71
35649;BME280;21768;48.562;13.414;2024-01-15T06:35:05;96002.06;;;0.45;63.69
35649;BME280;21768;48.562;13.414;2024-01-15T06:37:31;96009.75;;;0.48;63.64
35649;BME280;21768;48.562;13.414;2024-01-15T06:39:57;96009.00;;;0.49;63.66
35649;BME280;21768;48.562;13.414;2024-01-15T06:42:23;96002.44;;;0.49;63.60
35649;BME280;21768;48.562;13.414;2024-01-15T06:44:48;96003.28;;;0.60;63.80
35649;BME280;21768;48.562;13.414;2024-01-15T06:47:14;96007.72;;;0.64;63.83
35649;BME280;21768;48.562;13.414;2024-01-15T06:49:40;96012.44;;;0.71;63.54
35649;BME280;21768;48.562;13.414;2024-01-15T06:52:05;96006.75;;;0.62;63.21
35649;BME280;21768;48.562;13.414;2024-01-15T06:54:31;96012.00;;;0.45;63.13
35649;BME280;21768;48.562;13.414;2024-01-15T06:56:56;96012.59;;;0.42;63.34
35649;BME280;21768;48.562;13.414;2024-01-15T06:59:22;95997.84;;;0.44;63.42
35649;BME280;21768;48.562;13.414;2024-01-15T07:01:47;96000.56;;;0.47;63.28
35649;BME280;21768;48.562;13.414;2024-01-15T07:04:12;96005.53;;;0.47;63.37
35649;BME280;21768;48.562;13.414;2024-01-15T07:06:38;96004.78;;;0.48;63.83
35649;BME280;21768;48.562;13.414;2024-01-15T07:09:04;96017.66;;;0.54;63.68
35649;BME280;21768;48.562;13.414;2024-01-15T07:11:29;96017.19;;;0.48;63.88
35649;BME280;21768;48.562;13.414;2024-01-15T07:13:54;96016.31;;;0.47;64.54
35649;BME280;21768;48.562;13.414;2024-01-15T07:16:20;96016.69;;;0.42;64.80
35649;BME280;21768;48.562;13.414;2024-01-15T07:18:45;96014.47;;;0.34;65.10
35649;BME280;21768;48.562;13.414;2024-01-15T07:21:10;96014.22;;;0.31;65.44
35649;BME280;21768;48.562;13.414;2024-01-15T07:23:36;96011.00;;;0.32;65.70
35649;BME280;21768;48.562;13.414;2024-01-15T07:26:02;96012.97;;;0.37;65.91
35649;BME280;21768;48.562;13.414;2024-01-15T07:28:30;96017.19;;;0.38;65.99
35649;BME280;21768;48.562;13.414;2024-01-15T07:30:55;96008.16;;;0.48;66.02
35649;BME280;21768;48.562;13.414;2024-01-15T07:33:21;96011.38;;;0.47;65.92
35649;BME280;21768;48.562;13.414;2024-01-15T07:35:46;96014.22;;;0.42;65.96
35649;BME280;21768;48.562;13.414;2024-01-15T07:38:12;96008.25;;;0.40;66.27
35649;BME280;21768;48.562;13.414;2024-01-15T07:40:37;96013.59;;;0.34;66.21
35649;BME280;21768;48.562;13.414;2024-01-15T07:43:03;96006.53;;;0.39;66.29
35649;BME280;21768;48.562;13.414;2024-01-15T07:45:28;96004.19;;;0.40;66.17
35649;BME280;21768;48.562;13.414;2024-01-15T07:47:53;96011.63;;;0.40;66.38
35649;BME280;21768;48.562;13.414;2024-01-15T07:50:19;96012.00;;;0.45;66.26
35649;BME280;21768;48.562;13.414;2024-01-15T07:52:44;96008.50;;;0.43;66.43
35649;BME280;21768;48.562;13.414;2024-01-15T07:55:10;96013.59;;;0.44;66.42
35649;BME280;21768;48.562;13.414;2024-01-15T07:57:35;96011.25;;;0.46;66.49
35649;BME280;21768;48.562;13.414;2024-01-15T08:00:01;96006.75;;;0.52;66.29
35649;BME280;21768;48.562;13.414;2024-01-15T08:02:29;95992.59;;;0.61;66.31
35649;BME280;21768;48.562;13.414;2024-01-15T08:04:54;96000.53;;;0.67;66.13
35649;BME280;21768;48.562;13.414;2024-01-15T08:07:19;96001.78;;;0.72;66.14
35649;BME280;21768;48.562;13.414;2024-01-15T08:09:45;96002.09;;;0.77;66.50
35649;BME280;21768;48.562;13.414;2024-01-15T08:12:12;96006.19;;;0.86;66.04
35649;BME280;21768;48.562;13.414;2024-01-15T08:14:38;96004.94;;;0.91;66.10
35649;BME280;21768;48.562;13.414;2024-01-15T08:17:03;96000.09;;;0.93;66.19
35649;BME280;21768;48.562;13.414;2024-01-15T08:19:29;96001.41;;;0.99;66.19
35649;BME280;21768;48.562;13.414;2024-01-15T08:21:55;96003.63;;;1.07;65.88
35649;BME280;21768;48.562;13.414;2024-01-15T08:24:20;95993.94;;;1.10;66.02
35649;BME280;21768;48.562;13.414;2024-01-15T08:26:45;95995.66;;;1.21;65.61
35649;BME280;21768;48.562;13.414;2024-01-15T08:29:11;95996.63;;;1.23;65.18
35649;BME280;21768;48.562;13.414;2024-01-15T08:31:36;96002.47;;;1.23;65.37
35649;BME280;21768;48.562;13.414;2024-01-15T08:34:01;96003.31;;;1.24;65.34
35649;BME280;21768;48.562;13.414;2024-01-15T08:36:27;95996.63;;;1.23;65.11
35649;BME280;21768;48.562;13.414;2024-01-15T08:38:54;95980.22;;;1.25;65.29
35649;BME280;21768;48.562;13.414;2024-01-15T08:41:20;95972.72;;;1.35;65.18
35649;BME280;21768;48.562;13.414;2024-01-15T08:43:45;95965.22;;;1.45;64.80
35649;BME280;21768;48.562;13.414;2024-01-15T08:46:10;95961.56;;;1.52;64.73
35649;BME280;21768;48.562;13.414;2024-01-15T08:48:36;95971.69;;;1.65;64.29
35649;BME280;21768;48.562;13.414;2024-01-15T08:51:01;95969.84;;;1.74;63.97
35649;BME280;21768;48.562;13.414;2024-01-15T08:53:27;95973.16;;;1.85;64.04
35649;BME280;21768;48.562;13.414;2024-01-15T08:55:53;95985.69;;;1.86;63.26
35649;BME280;21768;48.562;13.414;2024-01-15T08:58:18;95988.31;;;1.88;63.65
35649;BME280;21768;48.562;13.414;2024-01-15T09:00:44;95984.59;;;1.83;63.01
35649;BME280;21768;48.562;13.414;2024-01-15T09:03:09;95983.09;;;1.85;63.00
35649;BME280;21768;48.562;13.414;2024-01-15T09:05:35;95985.81;;;1.88;62.78
35649;BME280;21768;48.562;13.414;2024-01-15T09:08:00;95988.06;;;1.85;62.29
35649;BME280;21768;48.562;13.414;2024-01-15T09:10:26;95988.47;;;1.79;62.60
35649;BME280;21768;48.562;13.414;2024-01-15T09:12:51;95975.34;;;1.92;62.52
35649;BME280;21768;48.562;13.414;2024-01-15T09:15:17;95970.06;;;1.99;61.82
35649;BME280;21768;48.562;13.414;2024-01-15T09:17:42;95969.00;;;2.07;61.93
35649;BME280;21768;48.562;13.414;2024-01-15T09:20:08;95961.69;;;2.20;61.52
35649;BME280;21768;48.562;13.414;2024-01-15T09:22:35;95968.00;;;2.38;61.46
35649;BME280;21768;48.562;13.414;2024-01-15T09:25:00;95968.22;;;2.53;61.15
35649;BME280;21768;48.562;13.414;2024-01-15T09:27:25;95971.78;;;2.57;60.79
35649;BME280;21768;48.562;13.414;2024-01-15T09:29:52;95958.81;;;2.61;60.58
35649;BME280;21768;48.562;13.414;2024-01-15T09:32:17;95968.47;;;2.68;59.42
35649;BME280;21768;48.562;13.414;2024-01-15T09:34:43;95965.53;;;2.85;59.67
35649;BME280;21768;48.562;13.414;2024-01-15T09:37:08;95967.22;;;3.10;59.24
35649;BME280;21768;48.562;13.414;2024-01-15T09:39:34;95963.81;;;3.32;58.28
35649;BME280;21768;48.562;13.414;2024-01-15T09:42:00;95965.25;;;3.29;58.21
35649;BME280;21768;48.562;13.414;2024-01-15T09:44:26;95968.91;;;3.46;58.18
35649;BME280;21768;48.562;13.414;2024-01-15T09:46:52;95967.00;;;3.55;57.93
35649;BME280;21768;48.562;13.414;2024-01-15T09:49:19;95961.69;;;3.62;58.12
35649;BME280;21768;48.562;13.414;2024-01-15T09:51:44;95963.22;;;3.60;56.90
35649;BME280;21768;48.562;13.414;2024-01-15T09:54:13;95980.28;;;3.42;57.14
35649;BME280;21768;48.562;13.414;2024-01-15T09:56:44;95968.69;;;3.31;56.88
35649;BME280;21768;48.562;13.414;2024-01-15T09:59:11;95964.41;;;3.17;57.05
35649;BME280;21768;48.562;13.414;2024-01-15T10:01:37;95968.00;;;3.08;57.38
35649;BME280;21768;48.562;13.414;2024-01-15T10:04:05;95963.97;;;3.11;57.76
35649;BME280;21768;48.562;13.414;2024-01-15T10:06:31;95960.03;;;3.26;58.02
35649;BME280;21768;48.562;13.414;2024-01-15T10:08:57;95948.66;;;3.29;56.89
35649;BME280;21768;48.562;13.414;2024-01-15T10:11:26;95960.09;;;3.14;57.03
35649;BME280;21768;48.562;13.414;2024-01-15T10:13:51;95950.63;;;3.22;57.05
35649;BME280;21768;48.562;13.414;2024-01-15T10:16:19;95947.28;;;3.21;57.10
35649;BME280;21768;48.562;13.414;2024-01-15T10:18:44;95947.94;;;3.19;56.42
35649;BME280;21768;48.562;13.414;2024-01-15T10:21:10;95944.47;;;3.17;57.09
35649;BME280;21768;48.562;13.414;2024-01-15T10:23:35;95944.38;;;3.15;56.86
35649;BME280;21768;48.562;13.414;2024-01-15T10:26:01;95937.56;;;3.01;56.63
35649;BME280;21768;48.562;13.414;2024-01-15T10:28:27;95936.06;;;2.91;57.07
35649;BME280;21768;48.562;13.414;2024-01-15T10:30:57;95944.53;;;2.93;57.21
35649;BME280;21768;48.562;13.414;2024-01-15T10:33:22;95926.34;;;2.94;56.26
35649;BME280;21768;48.562;13.414;2024-01-15T10:35:55;95933.47;;;2.90;57.19
35649;BME280;21768;48.562;13.414;2024-01-15T10:38:22;95931.09;;;2.91;57.25
35649;BME280;21768;48.562;13.414;2024-01-15T10:40:51;95931.09;;;2.91;57.12
35649;BME280;21768;48.562;13.414;2024-01-15T10:43:16;95930.88;;;2.88;56.69
35649;BME280;21768;48.562;13.414;2024-01-15T10:45:47;95921.56;;;2.86;56.99
35649;BME280;21768;48.562;13.414;2024-01-15T10:48:13;95923.53;;;2.90;56.95
35649;BME280;21768;48.562;13.414;2024-01-15T10:50:39;95910.53;;;2.94;56.35
35649;BME280;21768;48.562;13.414;2024-01-15T10:53:05;95900.44;;;2.92;56.58
35649;BME280;21768;48.562;13.414;2024-01-15T10:55:31;95895.09;;;2.99;56.51
35649;BME280;21768;48.562;13.414;2024-01-15T10:57:58;95893.69;;;3.03;56.73
35649;BME280;21768;48.562;13.414;2024-01-15T11:00:24;95901.06;;;3.13;56.62
35649;BME280;21768;48.562;13.414;2024-01-15T11:02:50;95891.50;;;3.19;56.24
35649;BME280;21768;48.562;13.414;2024-01-15T11:05:16;95897.75;;;3.26;56.28
35649;BME280;21768;48.562;13.414;2024-01-15T11:07:43;95888.63;;;3.38;56.48
35649;BME280;21768;48.562;13.414;2024-01-15T11:10:41;95890.78;;;3.45;55.99
35649;BME280;21768;48.562;13.414;2024-01-15T11:13:56;95884.84;;;3.56;55.44
35649;BME280;21768;48.562;13.414;2024-01-15T11:23:47;95869.75;;;3.66;54.63
35649;BME280;21768;48.562;13.414;2024-01-15T11:29:08;95869.19;;;3.70;54.71
35649;BME280;21768;48.562;13.414;2024-01-15T11:34:06;95875.56;;;3.92;54.93
35649;BME280;21768;48.562;13.414;2024-01-15T11:42:02;95867.47;;;3.83;54.20
35649;BME280;21768;48.562;13.414;2024-01-15T11:44:29;95865.34;;;3.75;54.35
35649;BME280;21768;48.562;13.414;2024-01-15T11:46:59;95853.44;;;3.71;54.39
35649;BME280;21768;48.562;13.414;2024-01-15T11:50:00;95854.78;;;3.66;54.23
35649;BME280;21768;48.562;13.414;2024-01-15T11:52:38;95850.91;;;3.58;54.41
35649;BME280;21768;48.562;13.414;2024-01-15T11:57:43;95849.91;;;3.68;55.33
35649;BME280;21768;48.562;13.414;2024-01-15T12:00:11;95856.63;;;3.69;54.63
35649;BME280;21768;48.562;13.414;2024-01-15T12:02:44;95843.75;;;3.63;55.04
35649;BME280;21768;48.562;13.414;2024-01-15T12:05:10;95845.94;;;3.58;55.10
35649;BME280;21768;48.562;13.414;2024-01-15T12:07:38;95839.69;;;3.52;54.90
35649;BME280;21768;48.562;13.414;2024-01-15T12:10:08;95849.53;;;3.50;55.25
35649;BME280;21768;48.562;13.414;2024-01-15T12:13:00;95841.84;;;3.47;55.26
35649;BME280;21768;48.562;13.414;2024-01-15T12:15:29;95840.34;;;3.49;55.49
35649;BME280;21768;48.562;13.414;2024-01-15T12:17:59;95836.81;;;3.46;55.27
35649;BME280;21768;48.562;13.414;2024-01-15T12:20:30;95841.97;;;3.49;55.36
35649;BME280;21768;48.562;13.414;2024-01-15T12:22:57;95831.88;;;3.47;55.34
35649;BME280;21768;48.562;13.414;2024-01-15T12:25:23;95835.19;;;3.46;54.95
35649;BME280;21768;48.562;13.414;2024-01-15T12:27:49;95827.38;;;3.41;54.96
35649;BME280;21768;48.562;13.414;2024-01-15T12:30:15;95819.81;;;3.40;54.72
35649;BME280;21768;48.562;13.414;2024-01-15T12:32:44;95833.13;;;3.40;55.07
35649;BME280;21768;48.562;13.414;2024-01-15T12:35:11;95835.41;;;3.37;54.98
35649;BME280;21768;48.562;13.414;2024-01-15T12:37:37;95826.44;;;3.39;55.51
35649;BME280;21768;48.562;13.414;2024-01-15T12:40:04;95828.81;;;3.38;55.32
35649;BME280;21768;48.562;13.414;2024-01-15T12:42:35;95826.88;;;3.34;55.68
35649;BME280;21768;48.562;13.414;2024-01-15T12:45:01;95827.19;;;3.38;55.77
35649;BME280;21768;48.562;13.414;2024-01-15T12:47:28;95833.78;;;3.38;55.96
35649;BME280;21768;48.562;13.414;2024-01-15T12:49:53;95826.84;;;3.46;56.06
35649;BME280;21768;48.562;13.414;2024-01-15T12:52:19;95835.75;;;3.55;56.11
35649;BME280;21768;48.562;13.414;2024-01-15T12:54:49;95836.41;;;3.53;56.07
35649;BME280;21768;48.562;13.414;2024-01-15T12:57:16;95825.78;;;3.55;56.23
35649;BME280;21768;48.562;13.414;2024-01-15T12:59:42;95831.75;;;3.57;56.00
35649;BME280;21768;48.562;13.414;2024-01-15T13:02:07;95839.00;;;3.54;55.97
35649;BME280;21768;48.562;13.414;2024-01-15T13:04:32;95835.94;;;3.45;56.14
35649;BME280;21768;48.562;13.414;2024-01-15T13:06:58;95836.69;;;3.44;56.30
35649;BME280;21768;48.562;13.414;2024-01-15T13:09:23;95840.22;;;3.48;56.28
35649;BME280;21768;48.562;13.414;2024-01-15T13:11:49;95830.25;;;3.48;55.95
35649;BME280;21768;48.562;13.414;2024-01-15T13:14:14;95821.75;;;3.44;55.86
35649;BME280;21768;48.562;13.414;2024-01-15T13:16:40;95822.72;;;3.46;55.64